Time;durP1;ratioP1;P1;durP2;ratioP2;P2;SDS_P1;SDS_P2;PMS_P1;PMS_P2;Temp;Humidity;BMP_temperature;BMP_pressure;BME280_temperature;BME280_humidity;BME280_pressure;Samples;Min_cycle;Max_cycle;Signal;HPM_P1;HPM_P2
2024/01/08 00:01:15;;;;;;;;;;;;;;;7.75;48.52;102201.91;4213823;28;19924;-52
2024/01/08 00:03:16;;;;;;;;;;;;;;;7.73;48.59;102196.69;4213853;28;19927;-54
2024/01/08 00:05:18;;;;;;;;;;;;;;;7.73;48.26;102201.94;4213808;28;20003;-54
2024/01/08 00:07:20;;;;;;;;;;;;;;;7.70;48.61;102195.81;4213853;28;19920;-54
2024/01/08 00:09:22;;;;;;;;;;;;;;;7.68;48.18;102203.69;4212319;28;20294;-54
2024/01/08 00:11:23;;;;;;;;;;;;;;;7.69;48.18;102200.16;4213733;28;19920;-55
2024/01/08 00:13:25;;;;;;;;;;;;;;;7.66;48.15;102208.88;4213822;28;19975;-55
2024/01/08 00:15:27;;;;;;;;;;;;;;;7.66;48.13;102221.13;4213893;28;20186;-55
2024/01/08 00:17:28;;;;;;;;;;;;;;;7.66;48.13;102221.97;4214011;28;20022;-54
2024/01/08 00:19:31;;;;;;;;;;;;;;;7.65;48.13;102214.13;4213702;28;20040;-53
2024/01/08 00:21:33;;;;;;;;;;;;;;;7.64;47.94;102215.91;4213694;28;19920;-55
2024/01/08 00:23:35;;;;;;;;;;;;;;;7.64;47.67;102210.66;4213126;28;20306;-55
2024/01/08 00:25:37;;;;;;;;;;;;;;;7.64;48.13;102205.41;4213654;28;20010;-54
2024/01/08 00:27:39;;;;;;;;;;;;;;;7.65;47.60;102208.91;4212495;28;19926;-57
2024/01/08 00:29:41;;;;;;;;;;;;;;;7.65;47.71;102215.00;4213826;28;19920;-54
2024/01/08 00:31:42;;;;;;;;;;;;;;;7.65;47.66;102201.91;4213900;28;19919;-53
2024/01/08 00:33:44;;;;;;;;;;;;;;;7.65;47.77;102212.38;4213741;28;19920;-54
2024/01/08 00:35:45;;;;;;;;;;;;;;;7.65;47.53;102212.38;4213756;28;19959;-53
2024/01/08 00:37:49;;;;;;;;;;;;;;;7.67;47.74;102212.41;4212049;28;19973;-56
2024/01/08 00:39:51;;;;;;;;;;;;;;;7.65;47.57;102204.53;4212448;28;19924;-54
2024/01/08 00:41:52;;;;;;;;;;;;;;;7.66;47.60;102200.19;4213893;28;19930;-55
2024/01/08 00:43:54;;;;;;;;;;;;;;;7.65;47.64;102211.50;4213820;28;19920;-54
2024/01/08 00:45:55;;;;;;;;;;;;;;;7.64;47.78;102205.41;4213643;28;19923;-55
2024/01/08 00:47:57;;;;;;;;;;;;;;;7.64;47.56;102228.97;4212169;28;19924;-55
2024/01/08 00:49:59;;;;;;;;;;;;;;;7.65;47.69;102229.84;4212516;28;19920;-51
2024/01/08 00:52:03;;;;;;;;;;;;;;;7.64;47.80;102207.16;4213254;28;20425;-55
2024/01/08 00:54:05;;;;;;;;;;;;;;;7.61;47.84;102218.50;4213475;28;19919;-55
2024/01/08 00:56:06;;;;;;;;;;;;;;;7.60;47.74;102226.34;4213296;28;19970;-54
2024/01/08 00:58:09;;;;;;;;;;;;;;;7.59;47.60;102225.47;4216747;28;19920;-56
2024/01/08 01:00:11;;;;;;;;;;;;;;;7.56;47.60;102207.16;4216588;28;19920;-56
2024/01/08 01:02:12;;;;;;;;;;;;;;;7.55;47.79;102213.25;4216700;28;19962;-55
2024/01/08 01:04:14;;;;;;;;;;;;;;;7.55;47.55;102208.00;4215386;28;20299;-53
2024/01/08 01:06:19;;;;;;;;;;;;;;;7.54;47.46;102216.75;4216481;28;20011;-54
2024/01/08 01:08:21;;;;;;;;;;;;;;;7.53;47.50;102215.00;4216852;28;19920;-53
2024/01/08 01:10:22;;;;;;;;;;;;;;;7.52;47.49;102221.09;4216772;28;19920;-53
2024/01/08 01:12:24;;;;;;;;;;;;;;;7.51;47.39;102214.13;4216882;28;19920;-53
2024/01/08 01:14:26;;;;;;;;;;;;;;;7.50;47.43;102212.38;4216810;28;20696;-53
2024/01/08 01:16:29;;;;;;;;;;;;;;;7.48;47.61;102206.25;4216586;28;20040;-53
2024/01/08 01:18:31;;;;;;;;;;;;;;;7.47;47.54;102214.97;4216540;28;19931;-53
2024/01/08 01:20:33;;;;;;;;;;;;;;;7.46;47.15;102208.00;4216015;28;19920;-54
2024/01/08 01:22:34;;;;;;;;;;;;;;;7.46;46.92;102206.28;4215281;28;19966;-54
2024/01/08 01:24:36;;;;;;;;;;;;;;;7.45;47.04;102207.13;4216171;28;19928;-50
2024/01/08 01:26:37;;;;;;;;;;;;;;;7.44;46.98;102208.00;4216548;28;20430;-53
2024/01/08 01:28:39;;;;;;;;;;;;;;;7.44;47.04;102218.47;4216356;28;20247;-54
2024/01/08 01:30:40;;;;;;;;;;;;;;;7.44;46.79;102210.63;4216397;28;19971;-53
2024/01/08 01:32:42;;;;;;;;;;;;;;;7.43;46.81;102216.72;4215927;28;20002;-53
2024/01/08 01:34:44;;;;;;;;;;;;;;;7.43;46.98;102221.09;4216458;28;19923;-53
2024/01/08 01:36:47;;;;;;;;;;;;;;;7.40;46.89;102216.72;4215992;28;19924;-53
2024/01/08 01:38:48;;;;;;;;;;;;;;;7.42;46.86;102221.97;4216076;28;19965;-55
2024/01/08 01:40:50;;;;;;;;;;;;;;;7.40;46.84;102216.72;4216144;28;20383;-54
2024/01/08 01:42:54;;;;;;;;;;;;;;;7.40;46.79;102221.06;4216196;28;20374;-58
2024/01/08 01:44:55;;;;;;;;;;;;;;;7.40;46.81;102228.94;4216063;28;20409;-52
2024/01/08 01:46:57;;;;;;;;;;;;;;;7.39;46.86;102225.44;4216448;28;19920;-55
2024/01/08 01:48:59;;;;;;;;;;;;;;;7.38;46.86;102226.31;4215941;28;20358;-53
2024/01/08 01:51:04;;;;;;;;;;;;;;;7.38;46.58;102221.09;4215544;28;19927;-55
2024/01/08 01:53:06;;;;;;;;;;;;;;;7.37;46.76;102215.84;4215928;28;19930;-53
2024/01/08 01:55:08;;;;;;;;;;;;;;;7.36;46.60;102214.97;4215756;28;20469;-54
2024/01/08 01:57:10;;;;;;;;;;;;;;;7.35;46.63;102219.34;4215797;28;19924;-53
2024/01/08 01:59:15;;;;;;;;;;;;;;;7.35;46.91;102210.59;4215595;28;20379;-54
2024/01/08 02:01:18;;;;;;;;;;;;;;;7.36;46.82;102209.72;4215776;28;19924;-55
2024/01/08 02:03:20;;;;;;;;;;;;;;;7.37;46.73;102221.09;4215717;28;19958;-51
2024/01/08 02:05:22;;;;;;;;;;;;;;;7.36;46.65;102217.56;4215115;28;20453;-53
2024/01/08 02:07:27;;;;;;;;;;;;;;;7.36;46.70;102217.56;4214429;28;19970;-53
2024/01/08 02:09:28;;;;;;;;;;;;;;;7.35;46.71;102221.94;4214872;28;19920;-54
2024/01/08 02:11:30;;;;;;;;;;;;;;;7.35;46.50;102221.06;4215531;28;19920;-52
2024/01/08 02:13:32;;;;;;;;;;;;;;;7.35;46.59;102229.81;4215466;28;20318;-54
2024/01/08 02:15:35;;;;;;;;;;;;;;;7.37;46.70;102236.78;4215697;28;20328;-55
2024/01/08 02:17:38;;;;;;;;;;;;;;;7.35;46.67;102232.41;4215453;28;20343;-59
2024/01/08 02:19:40;;;;;;;;;;;;;;;7.33;46.75;102234.16;4215461;28;19927;-54
2024/01/08 02:21:41;;;;;;;;;;;;;;;7.33;46.76;102228.91;4215781;28;19924;-54
2024/01/08 02:23:43;;;;;;;;;;;;;;;7.32;46.37;102226.31;4215302;28;19927;-52
2024/01/08 02:25:45;;;;;;;;;;;;;;;7.32;46.27;102226.31;4215331;28;19973;-53
2024/01/08 02:27:47;;;;;;;;;;;;;;;7.31;46.41;102222.78;4215335;28;20021;-51
2024/01/08 02:29:48;;;;;;;;;;;;;;;7.32;46.62;102228.91;4215432;28;19926;-54
2024/01/08 02:31:50;;;;;;;;;;;;;;;7.31;46.64;102225.41;4215064;28;19920;-52
2024/01/08 02:33:51;;;;;;;;;;;;;;;7.29;46.85;102229.78;4214998;28;19973;-53
2024/01/08 02:35:53;;;;;;;;;;;;;;;7.29;46.72;102227.19;4215103;28;20310;-52
2024/01/08 02:37:56;;;;;;;;;;;;;;;7.28;46.41;102238.50;4214967;28;20303;-55
2024/01/08 02:39:57;;;;;;;;;;;;;;;7.27;46.64;102239.38;4213801;28;19973;-55
2024/01/08 02:41:59;;;;;;;;;;;;;;;7.27;46.38;102228.03;4215175;28;19926;-51
2024/01/08 02:44:00;;;;;;;;;;;;;;;7.25;46.53;102235.88;4214956;28;19920;-52
2024/01/08 02:46:02;;;;;;;;;;;;;;;7.25;46.52;102227.16;4215206;28;19924;-55
2024/01/08 02:48:04;;;;;;;;;;;;;;;7.23;46.51;102229.78;4215040;28;20370;-54
2024/01/08 02:50:06;;;;;;;;;;;;;;;7.22;46.27;102235.88;4215074;28;19920;-54
2024/01/08 02:52:08;;;;;;;;;;;;;;;7.22;46.31;102228.03;4215102;28;19977;-54
2024/01/08 02:54:09;;;;;;;;;;;;;;;7.21;46.44;102222.81;4214932;28;19920;-55
2024/01/08 02:56:20;;;;;;;;;;;;;;;7.20;46.21;102227.13;4214847;28;19934;-53
2024/01/08 02:58:22;;;;;;;;;;;;;;;7.22;46.15;102225.41;4215101;28;19924;-54
2024/01/08 03:00:23;;;;;;;;;;;;;;;7.21;46.23;102233.25;4214592;28;20455;-54
2024/01/08 03:02:25;;;;;;;;;;;;;;;7.19;46.30;102231.50;4214525;28;19920;-54
2024/01/08 03:04:27;;;;;;;;;;;;;;;7.19;46.21;102230.63;4214799;28;20469;-52
2024/01/08 03:06:29;;;;;;;;;;;;;;;7.19;46.23;102233.25;4214694;28;19920;-54
2024/01/08 03:08:30;;;;;;;;;;;;;;;7.19;46.15;102230.63;4214486;28;19927;-53
2024/01/08 03:10:32;;;;;;;;;;;;;;;7.19;46.11;102241.09;4213608;28;19924;-52
2024/01/08 03:12:33;;;;;;;;;;;;;;;7.19;46.42;102235.84;4214655;28;20348;-53
2024/01/08 03:14:35;;;;;;;;;;;;;;;7.18;46.21;102228.88;4214610;28;20003;-51
2024/01/08 03:16:37;;;;;;;;;;;;;;;7.18;46.21;102236.72;4214196;28;19923;-54
2024/01/08 03:18:38;;;;;;;;;;;;;;;7.16;46.17;102236.72;4214681;28;20056;-54
2024/01/08 03:20:41;;;;;;;;;;;;;;;7.17;46.31;102241.09;4214483;28;20314;-55
2024/01/08 03:22:43;;;;;;;;;;;;;;;7.16;45.91;102239.34;4214545;28;19956;-54
2024/01/08 03:24:44;;;;;;;;;;;;;;;7.17;46.03;102237.63;4214251;28;19920;-55
2024/01/08 03:26:46;;;;;;;;;;;;;;;7.17;46.03;102241.09;4214518;28;19961;-51
2024/01/08 03:28:47;;;;;;;;;;;;;;;7.17;46.11;102248.94;4214261;28;19924;-53
2024/01/08 03:30:50;;;;;;;;;;;;;;;7.17;46.24;102242.84;4213831;28;19926;-53
2024/01/08 03:32:51;;;;;;;;;;;;;;;7.16;46.02;102238.47;4213056;28;20338;-53
2024/01/08 03:34:53;;;;;;;;;;;;;;;7.15;46.09;102247.19;4212702;28;19920;-51
2024/01/08 03:36:55;;;;;;;;;;;;;;;7.14;46.00;102256.75;4214496;28;20301;-53
2024/01/08 03:38:57;;;;;;;;;;;;;;;7.13;46.27;102252.44;4214095;28;19963;-56
2024/01/08 03:40:58;;;;;;;;;;;;;;;7.14;45.96;102253.28;4214280;28;19962;-51
2024/01/08 03:43:00;;;;;;;;;;;;;;;7.12;45.87;102237.59;4214112;28;19959;-49
2024/01/08 03:45:02;;;;;;;;;;;;;;;7.12;45.99;102249.78;4214221;28;19955;-50
2024/01/08 03:47:04;;;;;;;;;;;;;;;7.12;46.12;102242.81;4213903;28;19920;-54
2024/01/08 03:49:06;;;;;;;;;;;;;;;7.11;45.98;102251.53;4214097;28;20383;-52
2024/01/08 03:51:08;;;;;;;;;;;;;;;7.12;46.12;102250.69;4214110;28;20521;-53
2024/01/08 03:53:10;;;;;;;;;;;;;;;7.11;46.06;102248.03;4213943;28;19981;-53
2024/01/08 03:55:12;;;;;;;;;;;;;;;7.11;46.22;102254.16;4214084;28;19927;-52
2024/01/08 03:57:13;;;;;;;;;;;;;;;7.10;46.07;102248.94;4213962;28;19920;-53
2024/01/08 03:59:15;;;;;;;;;;;;;;;7.10;46.23;102246.31;4213993;28;19926;-55
2024/01/08 04:01:16;;;;;;;;;;;;;;;7.08;45.99;102258.50;4213787;28;19931;-54
2024/01/08 04:03:18;;;;;;;;;;;;;;;7.08;46.23;102253.28;4213863;28;19924;-50
2024/01/08 04:05:20;;;;;;;;;;;;;;;7.05;46.20;102261.97;4213960;28;19920;-50
2024/01/08 04:07:22;;;;;;;;;;;;;;;7.04;46.09;102255.84;4213889;28;20386;-54
2024/01/08 04:09:23;;;;;;;;;;;;;;;7.03;46.22;102256.75;4213865;28;19927;-53
2024/01/08 04:11:25;;;;;;;;;;;;;;;7.02;45.75;102257.63;4213831;28;19927;-53
2024/01/08 04:13:27;;;;;;;;;;;;;;;7.01;45.88;102261.09;4213859;28;19924;-52
2024/01/08 04:15:28;;;;;;;;;;;;;;;7.01;46.08;102263.72;4213747;28;20011;-51
2024/01/08 04:17:30;;;;;;;;;;;;;;;7.01;45.74;102260.19;4213732;28;19927;-53
2024/01/08 04:19:32;;;;;;;;;;;;;;;7.00;45.73;102272.41;4213758;28;20375;-54
2024/01/08 04:21:33;;;;;;;;;;;;;;;7.00;45.83;102264.56;4213900;28;19920;-54
2024/01/08 04:23:35;;;;;;;;;;;;;;;7.00;45.96;102271.56;4213786;28;19931;-52
2024/01/08 04:25:36;;;;;;;;;;;;;;;6.99;45.82;102270.66;4213704;28;20324;-49
2024/01/08 04:27:38;;;;;;;;;;;;;;;6.99;45.69;102267.19;4213763;28;19923;-50
2024/01/08 04:29:40;;;;;;;;;;;;;;;6.98;45.82;102266.31;4213367;28;19920;-51
2024/01/08 04:31:41;;;;;;;;;;;;;;;6.97;45.71;102267.16;4214900;28;20341;-54
2024/01/08 04:33:43;;;;;;;;;;;;;;;6.97;46.03;102271.53;4217171;28;19920;-53
2024/01/08 04:35:45;;;;;;;;;;;;;;;6.96;45.94;102278.53;4217267;28;19924;-53
2024/01/08 04:37:47;;;;;;;;;;;;;;;6.94;45.73;102272.41;4217420;28;20373;-52
2024/01/08 04:39:49;;;;;;;;;;;;;;;6.94;45.69;102271.50;4217268;28;20030;-54
2024/01/08 04:41:50;;;;;;;;;;;;;;;6.93;45.85;102283.72;4217106;28;19920;-54
2024/01/08 04:43:52;;;;;;;;;;;;;;;6.92;45.50;102268.88;4216606;28;19943;-53
2024/01/08 04:45:54;;;;;;;;;;;;;;;6.93;45.95;102264.56;4217002;28;19920;-52
2024/01/08 04:47:55;;;;;;;;;;;;;;;6.93;45.41;102272.41;4217094;28;19920;-55
2024/01/08 04:49:57;;;;;;;;;;;;;;;6.92;45.47;102274.13;4217097;28;19962;-53
2024/01/08 04:51:59;;;;;;;;;;;;;;;6.92;45.49;102273.25;4216986;28;19930;-49
2024/01/08 04:54:01;;;;;;;;;;;;;;;6.92;45.65;102275.88;4216997;28;20340;-49
2024/01/08 04:56:03;;;;;;;;;;;;;;;6.92;45.40;102275.88;4216458;28;20271;-52
2024/01/08 04:58:08;;;;;;;;;;;;;;;6.91;45.58;102285.44;4216347;28;19920;-50
2024/01/08 05:00:11;;;;;;;;;;;;;;;6.89;45.90;102274.13;4216867;28;19930;-54
2024/01/08 05:02:13;;;;;;;;;;;;;;;6.90;45.69;102272.38;4217007;28;19920;-55
2024/01/08 05:04:15;;;;;;;;;;;;;;;6.88;45.61;102269.75;4216678;28;19920;-54
2024/01/08 05:06:17;;;;;;;;;;;;;;;6.86;45.46;102261.88;4216891;28;19927;-54
2024/01/08 05:08:18;;;;;;;;;;;;;;;6.87;45.59;102268.00;4216862;28;19927;-55
2024/01/08 05:10:20;;;;;;;;;;;;;;;6.87;45.55;102268.88;4216548;28;19924;-56
2024/01/08 05:12:21;;;;;;;;;;;;;;;6.86;45.56;102271.47;4216463;28;19955;-53
2024/01/08 05:14:23;;;;;;;;;;;;;;;6.86;45.74;102263.63;4216476;28;20011;-55
2024/01/08 05:16:25;;;;;;;;;;;;;;;6.84;45.63;102265.34;4216555;28;19962;-54
2024/01/08 05:18:26;;;;;;;;;;;;;;;6.83;45.56;102267.09;4216315;28;19924;-54
2024/01/08 05:20:30;;;;;;;;;;;;;;;6.84;45.31;102274.09;4216521;28;20382;-54
2024/01/08 05:22:32;;;;;;;;;;;;;;;6.84;45.52;102276.72;4216622;28;19920;-55
2024/01/08 05:24:33;;;;;;;;;;;;;;;6.85;45.32;102273.22;4216237;28;19923;-54
2024/01/08 05:26:35;;;;;;;;;;;;;;;6.83;45.58;102276.72;4216461;28;20384;-54
2024/01/08 05:28:37;;;;;;;;;;;;;;;6.82;45.49;102272.34;4215875;28;19978;-53
2024/01/08 05:30:38;;;;;;;;;;;;;;;6.81;45.47;102279.28;4216217;28;20367;-54
2024/01/08 05:32:40;;;;;;;;;;;;;;;6.81;45.46;102276.69;4216401;28;19926;-54
2024/01/08 05:34:42;;;;;;;;;;;;;;;6.80;45.49;102280.16;4216155;28;19920;-52
2024/01/08 05:36:47;;;;;;;;;;;;;;;6.78;45.37;102287.16;4216453;28;20352;-53
2024/01/08 05:38:51;;;;;;;;;;;;;;;6.78;45.41;102283.63;4215030;28;20006;-51
2024/01/08 05:40:55;;;;;;;;;;;;;;;6.76;45.64;102270.56;4216279;28;20317;-52
2024/01/08 05:42:57;;;;;;;;;;;;;;;6.74;45.80;102285.34;4215905;28;19923;-54
2024/01/08 05:44:58;;;;;;;;;;;;;;;6.72;45.43;102290.59;4216037;28;20439;-51
2024/01/08 05:47:00;;;;;;;;;;;;;;;6.71;45.39;102287.97;4215853;28;19971;-51
2024/01/08 05:49:02;;;;;;;;;;;;;;;6.70;45.00;102281.00;4216177;28;19920;-50
2024/01/08 05:51:04;;;;;;;;;;;;;;;6.69;45.02;102285.31;4216380;28;19926;-52
2024/01/08 05:53:05;;;;;;;;;;;;;;;6.69;45.04;102301.00;4216004;28;20383;-54
2024/01/08 05:55:07;;;;;;;;;;;;;;;6.68;45.13;102278.38;4215936;28;20007;-54
2024/01/08 05:57:09;;;;;;;;;;;;;;;6.68;45.12;102283.59;4214585;28;20470;-51
2024/01/08 05:59:10;;;;;;;;;;;;;;;6.69;44.73;102289.69;4215565;28;19920;-53
2024/01/08 06:01:12;;;;;;;;;;;;;;;6.68;44.95;102280.09;4215815;28;19920;-53
2024/01/08 06:03:14;;;;;;;;;;;;;;;6.68;44.72;102283.59;4215491;28;19920;-56
2024/01/08 06:05:15;;;;;;;;;;;;;;;6.68;44.71;102291.44;4215851;28;19924;-54
2024/01/08 06:07:18;;;;;;;;;;;;;;;6.69;44.87;102293.16;4215711;28;20275;-54
2024/01/08 06:09:20;;;;;;;;;;;;;;;6.68;45.06;102291.44;4215704;28;20433;-53
2024/01/08 06:11:23;;;;;;;;;;;;;;;6.68;44.74;102293.16;4215263;28;19991;-54
2024/01/08 06:13:25;;;;;;;;;;;;;;;6.68;45.10;102298.41;4215860;28;19927;-55
2024/01/08 06:15:27;;;;;;;;;;;;;;;6.67;44.87;102296.63;4215350;28;19924;-54
2024/01/08 06:17:29;;;;;;;;;;;;;;;6.66;44.64;102292.28;4214369;28;20331;-53
2024/01/08 06:19:30;;;;;;;;;;;;;;;6.65;44.83;102299.25;4215762;28;19923;-55
2024/01/08 06:21:32;;;;;;;;;;;;;;;6.66;44.69;102300.13;4215571;28;20362;-53
2024/01/08 06:23:34;;;;;;;;;;;;;;;6.66;44.95;102298.41;4215535;28;19920;-56
2024/01/08 06:25:36;;;;;;;;;;;;;;;6.66;44.63;102305.34;4215262;28;19920;-53
2024/01/08 06:27:39;;;;;;;;;;;;;;;6.67;44.87;102299.25;4215462;28;19923;-54
2024/01/08 06:29:41;;;;;;;;;;;;;;;6.65;45.04;102301.88;4215552;28;19947;-53
2024/01/08 06:31:44;;;;;;;;;;;;;;;6.65;44.97;102311.47;4215489;28;20390;-54
2024/01/08 06:33:46;;;;;;;;;;;;;;;6.64;44.93;102300.13;4215463;28;19920;-55
2024/01/08 06:35:50;;;;;;;;;;;;;;;6.64;44.92;102301.88;4215225;28;19920;-52
2024/01/08 06:37:52;;;;;;;;;;;;;;;6.63;44.83;102308.81;4215216;28;19920;-55
2024/01/08 06:39:54;;;;;;;;;;;;;;;6.63;44.87;102305.34;4215059;28;19920;-54
2024/01/08 06:41:55;;;;;;;;;;;;;;;6.62;44.88;102314.94;4215223;28;20019;-54
2024/01/08 06:43:57;;;;;;;;;;;;;;;6.63;44.94;102302.72;4215333;28;19962;-55
2024/01/08 06:45:58;;;;;;;;;;;;;;;6.62;44.71;102307.09;4213874;28;19920;-53
2024/01/08 06:48:01;;;;;;;;;;;;;;;6.62;44.62;102316.66;4215315;28;19920;-56
2024/01/08 06:50:04;;;;;;;;;;;;;;;6.62;44.98;102312.31;4215479;28;19919;-51
2024/01/08 06:52:06;;;;;;;;;;;;;;;6.61;44.85;102307.97;4215106;28;20390;-51
2024/01/08 06:54:13;;;;;;;;;;;;;;;6.61;44.68;102304.44;4214119;28;19948;-53
2024/01/08 06:56:15;;;;;;;;;;;;;;;6.60;44.72;102313.16;4214939;28;20007;-54
2024/01/08 06:58:17;;;;;;;;;;;;;;;6.59;44.72;102317.50;4214813;28;19920;-55
2024/01/08 07:00:19;;;;;;;;;;;;;;;6.59;44.85;102308.81;4215321;28;19926;-55
2024/01/08 07:02:20;;;;;;;;;;;;;;;6.58;44.65;102318.38;4214814;28;19920;-52
2024/01/08 07:04:22;;;;;;;;;;;;;;;6.57;44.51;102321.84;4214888;28;19920;-54
2024/01/08 07:06:24;;;;;;;;;;;;;;;6.57;44.95;102308.78;4214629;28;19924;-52
2024/01/08 07:08:26;;;;;;;;;;;;;;;6.54;44.88;102301.78;4213291;28;20022;-52
2024/01/08 07:10:29;;;;;;;;;;;;;;;6.53;44.88;102317.47;4214725;28;19924;-53
2024/01/08 07:12:31;;;;;;;;;;;;;;;6.52;44.53;102315.72;4214741;28;19924;-54
2024/01/08 07:14:32;;;;;;;;;;;;;;;6.52;44.75;102305.28;4214851;28;19920;-54
2024/01/08 07:16:34;;;;;;;;;;;;;;;6.49;44.52;102300.91;4214599;28;20006;-53
2024/01/08 07:18:40;;;;;;;;;;;;;;;6.42;44.36;102283.41;4214699;28;20279;-51
2024/01/08 07:20:42;;;;;;;;;;;;;;;6.49;44.49;102298.28;4214694;28;19920;-51
2024/01/08 07:22:44;;;;;;;;;;;;;;;6.50;44.36;102301.75;4214379;28;19920;-52
2024/01/08 07:24:45;;;;;;;;;;;;;;;6.50;44.57;102301.75;4214364;28;19919;-54
2024/01/08 07:26:47;;;;;;;;;;;;;;;6.51;44.50;102304.41;4197479;28;19964;-52
2024/01/08 07:28:49;;;;;;;;;;;;;;;6.52;44.29;102297.44;4197955;28;19926;-54
2024/01/08 07:30:50;;;;;;;;;;;;;;;6.52;44.59;102293.06;4197164;28;20099;-52
2024/01/08 07:32:52;;;;;;;;;;;;;;;6.53;44.31;102300.03;4197603;28;20220;-52
2024/01/08 07:34:54;;;;;;;;;;;;;;;6.52;44.44;102297.44;4197613;28;20279;-50
2024/01/08 07:36:55;;;;;;;;;;;;;;;6.52;44.56;102300.03;4197429;28;19920;-52
2024/01/08 07:38:57;;;;;;;;;;;;;;;6.52;44.50;102300.03;4197200;28;19925;-52
2024/01/08 07:41:00;;;;;;;;;;;;;;;6.52;44.30;102306.13;4197426;28;19923;-53
2024/01/08 07:43:02;;;;;;;;;;;;;;;6.51;44.15;102304.41;4197201;28;20032;-49
2024/01/08 07:45:05;;;;;;;;;;;;;;;6.50;44.55;102307.88;4197524;28;20413;-52
2024/01/08 07:47:06;;;;;;;;;;;;;;;6.50;44.45;102302.66;4197550;28;19927;-49
2024/01/08 07:49:10;;;;;;;;;;;;;;;6.49;44.37;102298.28;4197514;28;19924;-51
2024/01/08 07:51:12;;;;;;;;;;;;;;;6.48;44.58;102303.50;4196132;28;19956;-53
2024/01/08 07:53:14;;;;;;;;;;;;;;;6.48;44.37;102298.28;4197185;28;20003;-52
2024/01/08 07:55:16;;;;;;;;;;;;;;;6.48;44.58;102293.91;4199395;28;19977;-54
2024/01/08 07:57:18;;;;;;;;;;;;;;;6.47;44.47;102302.63;4214118;28;19973;-53
2024/01/08 07:59:19;;;;;;;;;;;;;;;6.48;44.18;102299.16;4213907;28;19920;-52
2024/01/08 08:01:21;;;;;;;;;;;;;;;6.48;44.26;102308.72;4214169;28;20328;-52
2024/01/08 08:03:27;;;;;;;;;;;;;;;6.48;44.29;102313.97;4214121;28;19920;-52
2024/01/08 08:05:29;;;;;;;;;;;;;;;6.47;44.45;102304.38;4213824;28;19920;-51
2024/01/08 08:07:32;;;;;;;;;;;;;;;6.47;44.41;102315.69;4213007;28;20351;-50
2024/01/08 08:09:34;;;;;;;;;;;;;;;6.46;44.65;102319.16;4213983;28;20449;-48
2024/01/08 08:11:35;;;;;;;;;;;;;;;6.45;44.34;102313.94;4213922;28;20011;-51
2024/01/08 08:13:41;;;;;;;;;;;;;;;6.44;44.49;102310.44;4213833;28;19920;-49
2024/01/08 08:15:42;;;;;;;;;;;;;;;6.44;44.48;102310.44;4214264;28;19928;-48
2024/01/08 08:17:44;;;;;;;;;;;;;;;6.44;44.19;102315.69;4213892;28;19920;-47
2024/01/08 08:19:46;;;;;;;;;;;;;;;6.44;44.45;102310.44;4213906;28;20023;-52
2024/01/08 08:21:47;;;;;;;;;;;;;;;6.45;44.21;102311.31;4213436;28;19924;-48
2024/01/08 08:23:55;;;;;;;;;;;;;;;6.45;44.49;102319.16;4213960;28;19924;-49
2024/01/08 08:25:56;;;;;;;;;;;;;;;6.44;44.17;102328.75;4213859;28;19927;-51
2024/01/08 08:27:58;;;;;;;;;;;;;;;6.44;44.13;102312.16;4213790;28;19920;-51
2024/01/08 08:30:00;;;;;;;;;;;;;;;6.44;44.32;102323.53;4213637;28;20436;-48
2024/01/08 08:32:03;;;;;;;;;;;;;;;6.44;44.53;102323.53;4213648;28;19935;-48
2024/01/08 08:34:05;;;;;;;;;;;;;;;6.43;44.43;102320.88;4213794;28;19971;-47
2024/01/08 08:36:07;;;;;;;;;;;;;;;6.42;44.47;102321.75;4213197;28;19920;-46
2024/01/08 08:38:09;;;;;;;;;;;;;;;6.41;44.33;102330.47;4213893;28;19930;-50
2024/01/08 08:40:12;;;;;;;;;;;;;;;6.40;44.36;102324.34;4212301;28;19924;-51
2024/01/08 08:42:14;;;;;;;;;;;;;;;6.39;44.46;102325.19;4213772;28;19927;-52
2024/01/08 08:44:16;;;;;;;;;;;;;;;6.38;44.53;102332.19;4213901;28;20379;-52
2024/01/08 08:46:20;;;;;;;;;;;;;;;6.38;44.49;102339.16;4213696;28;19920;-53
2024/01/08 08:48:21;;;;;;;;;;;;;;;6.37;44.64;102333.03;4213672;28;19951;-49
2024/01/08 08:50:23;;;;;;;;;;;;;;;6.35;44.57;102339.97;4213161;28;19930;-52
2024/01/08 08:52:24;;;;;;;;;;;;;;;6.35;44.50;102341.72;4213760;28;20018;-51
2024/01/08 08:54:26;;;;;;;;;;;;;;;6.36;44.57;102346.09;4213538;28;19920;-50
2024/01/08 08:56:28;;;;;;;;;;;;;;;6.35;44.47;102344.34;4213526;28;20118;-50
2024/01/08 08:58:29;;;;;;;;;;;;;;;6.35;44.55;102341.72;4213367;28;20310;-52
2024/01/08 09:00:31;;;;;;;;;;;;;;;6.35;44.62;102344.34;4213305;28;19927;-47
2024/01/08 09:02:32;;;;;;;;;;;;;;;6.35;44.25;102344.34;4213354;28;20394;-51
2024/01/08 09:04:34;;;;;;;;;;;;;;;6.35;44.50;102342.59;4213263;28;19920;-51
2024/01/08 09:06:35;;;;;;;;;;;;;;;6.36;44.46;102346.97;4213349;28;20000;-51
2024/01/08 09:08:38;;;;;;;;;;;;;;;6.37;44.49;102361.78;4213328;28;20311;-48
2024/01/08 09:10:39;;;;;;;;;;;;;;;6.35;44.57;102360.88;4213453;28;19931;-50
2024/01/08 09:12:41;;;;;;;;;;;;;;;6.36;44.43;102356.56;4213622;28;19926;-50
2024/01/08 09:14:45;;;;;;;;;;;;;;;6.35;44.76;102357.41;4213347;28;20350;-52
2024/01/08 09:16:47;;;;;;;;;;;;;;;6.34;44.67;102358.25;4213751;28;19927;-52
2024/01/08 09:18:48;;;;;;;;;;;;;;;6.33;44.84;102356.50;4214611;28;19927;-52
2024/01/08 09:20:50;;;;;;;;;;;;;;;6.31;44.74;102366.97;4216678;28;19939;-50
2024/01/08 09:22:52;;;;;;;;;;;;;;;6.31;44.82;102358.25;4216601;28;20010;-51
2024/01/08 09:24:54;;;;;;;;;;;;;;;6.29;44.74;102363.44;4216412;28;20006;-50
2024/01/08 09:26:55;;;;;;;;;;;;;;;6.31;44.62;102358.25;4216359;28;19920;-50
2024/01/08 09:28:57;;;;;;;;;;;;;;;6.30;44.84;102359.97;4216331;28;19927;-50
2024/01/08 09:31:02;;;;;;;;;;;;;;;6.29;44.96;102367.81;4216565;28;19924;-51
2024/01/08 09:33:04;;;;;;;;;;;;;;;6.28;44.80;102368.66;4216260;28;19977;-53
2024/01/08 09:35:06;;;;;;;;;;;;;;;6.27;44.68;102370.41;4215998;28;20023;-52
2024/01/08 09:37:07;;;;;;;;;;;;;;;6.26;44.81;102363.44;4216317;28;19931;-50
2024/01/08 09:39:09;;;;;;;;;;;;;;;6.28;44.70;102366.06;4216379;28;19924;-52
2024/01/08 09:41:12;;;;;;;;;;;;;;;6.28;45.02;102368.66;4216163;28;19920;-52
2024/01/08 09:43:25;;;;;;;;;;;;;;;6.28;44.77;102369.53;4216174;28;20370;-51
2024/01/08 09:45:28;;;;;;;;;;;;;;;6.29;44.90;102365.19;4216325;28;19919;-51
2024/01/08 09:47:30;;;;;;;;;;;;;;;6.28;44.78;102373.91;4216303;28;19920;-51
2024/01/08 09:49:33;;;;;;;;;;;;;;;6.28;45.00;102379.97;4215655;28;19920;-52
2024/01/08 09:51:35;;;;;;;;;;;;;;;6.29;44.92;102375.66;4216182;28;19920;-51
2024/01/08 09:53:36;;;;;;;;;;;;;;;6.28;45.16;102381.72;4214815;28;20306;-51
2024/01/08 09:55:40;;;;;;;;;;;;;;;6.28;44.99;102386.97;4215920;28;19920;-52
2024/01/08 09:57:42;;;;;;;;;;;;;;;6.27;45.25;102380.88;4215747;28;20007;-52
2024/01/08 09:59:44;;;;;;;;;;;;;;;6.26;45.33;102383.44;4215845;28;19924;-52
2024/01/08 10:01:45;;;;;;;;;;;;;;;6.23;45.43;102385.19;4216012;28;19920;-52
2024/01/08 10:03:47;;;;;;;;;;;;;;;6.22;45.29;102380.81;4215380;28;19920;-52
2024/01/08 10:05:50;;;;;;;;;;;;;;;6.22;45.09;102390.38;4215758;28;19974;-52
2024/01/08 10:07:58;;;;;;;;;;;;;;;6.22;45.14;102387.75;4215560;28;19927;-51
2024/01/08 10:10:00;;;;;;;;;;;;;;;6.22;45.33;102385.16;4215802;28;19935;-51
2024/01/08 10:12:02;;;;;;;;;;;;;;;6.23;45.51;102390.41;4215697;28;19970;-52
2024/01/08 10:14:07;;;;;;;;;;;;;;;6.25;45.44;102385.19;4215846;28;19975;-51
2024/01/08 10:16:10;;;;;;;;;;;;;;;6.26;45.43;102391.28;4214406;28;19927;-48
2024/01/08 10:18:14;;;;;;;;;;;;;;;6.28;45.55;102381.72;4215465;28;19920;-51
2024/01/08 10:20:17;;;;;;;;;;;;;;;6.29;45.64;102389.56;4215651;28;20387;-47
2024/01/08 10:22:19;;;;;;;;;;;;;;;6.30;45.70;102380.00;4215937;28;19920;-48
2024/01/08 10:24:24;;;;;;;;;;;;;;;6.28;45.43;102382.59;4215567;28;19924;-51
2024/01/08 10:26:28;;;;;;;;;;;;;;;6.30;45.68;102383.50;4215565;28;19973;-53
2024/01/08 10:28:35;;;;;;;;;;;;;;;6.30;45.64;102382.63;4215488;28;19981;-51
2024/01/08 10:30:39;;;;;;;;;;;;;;;6.29;45.69;102376.50;4214599;28;19927;-48
2024/01/08 10:32:41;;;;;;;;;;;;;;;6.28;45.65;102382.59;4214833;28;19977;-52
2024/01/08 10:34:44;;;;;;;;;;;;;;;6.28;45.82;102379.13;4215304;28;19964;-48
2024/01/08 10:36:47;;;;;;;;;;;;;;;6.26;45.60;102379.13;4215127;28;20391;-49